83XS weather

Ball Park Heliport
Houston, Texas, United States

Public forecast

Using degrees Fahrenheit for public forecast. Weather courtesy of forecast.io.

METAR (pilot weather report)

Closest report is Sugar Land Regional Airport, 3.7 nm (6.9 km) SSW. Retrieved 2019/09/23 05:53 UTC (22 minutes ago):

KSGR 230553Z AUTO 12004KT 10SM CLR 27/26 A3001 RMK AO2 SLP162 T02670256 10294 20267 403280239 58003

TAF (pilot weather forecast)

Closest forecast is Sugar Land Regional Airport, 3.7 nm (6.9 km) SSW. Retrieved 2019/09/23 06:22 UTC (0 seconds ago):

TAF KSGR 230520Z 2306/2406 13005KT P6SM FEW015 SCT250 FM231600 16006KT P6SM VCSH SCT020 BKN035 TEMPO 2316/2320 TSRA BKN030CB FM232100 15008KT P6SM VCSH SCT030 BKN250 FM240100 14004KT P6SM SCT020 SCT250